Time;durP1;ratioP1;P1;durP2;ratioP2;P2;SDS_P1;SDS_P2;PMS_P1;PMS_P2;Temp;Humidity;BMP_temperature;BMP_pressure;BME280_temperature;BME280_humidity;BME280_pressure;Samples;Min_cycle;Max_cycle;Signal;HPM_P1;HPM_P2
2022/10/12 00:01:13;;;;;;;7.25;2.50;;;7.70;99.40;;;;;;5066100;28;20044;-73
2022/10/12 00:03:39;;;;;;;8.82;2.95;;;7.60;99.30;;;;;;5085222;28;20399;-73
2022/10/12 00:06:07;;;;;;;10.52;3.17;;;7.60;99.20;;;;;;5033813;28;20128;-74
2022/10/12 00:08:33;;;;;;;6.45;2.50;;;7.60;99.20;;;;;;5040032;28;20048;-74
2022/10/12 00:10:59;;;;;;;8.20;2.40;;;7.60;99.20;;;;;;5050884;28;20135;-74
2022/10/12 00:13:26;;;;;;;9.65;2.58;;;7.60;99.30;;;;;;5091493;28;20127;-74
2022/10/12 00:15:52;;;;;;;9.57;2.23;;;7.60;99.20;;;;;;5062218;28;20071;-73
2022/10/12 00:18:20;;;;;;;10.27;2.60;;;7.50;99.30;;;;;;5085350;28;20313;-74
2022/10/12 00:20:45;;;;;;;8.20;2.88;;;7.50;99.30;;;;;;5066689;28;20068;-73
2022/10/12 00:23:11;;;;;;;9.13;2.28;;;7.50;99.30;;;;;;5077682;28;20716;-74
2022/10/12 00:25:38;;;;;;;8.82;2.60;;;7.50;99.40;;;;;;5068071;28;20059;-73
2022/10/12 00:28:04;;;;;;;9.57;2.17;;;7.50;99.40;;;;;;5085950;28;20105;-74
2022/10/12 00:30:29;;;;;;;7.97;2.35;;;7.40;99.20;;;;;;5071059;28;20483;-75
2022/10/12 00:32:56;;;;;;;9.52;2.47;;;7.30;99.30;;;;;;5064684;28;20044;-74
2022/10/12 00:35:22;;;;;;;10.77;2.60;;;7.30;99.40;;;;;;5067363;28;20078;-74
2022/10/12 00:37:53;;;;;;;7.57;2.03;;;7.30;99.30;;;;;;5079110;28;20064;-72
2022/10/12 00:40:19;;;;;;;6.97;2.08;;;7.30;99.20;;;;;;5087944;28;20523;-74
2022/10/12 00:42:45;;;;;;;6.95;2.13;;;7.30;99.20;;;;;;5079876;28;20083;-73
2022/10/12 00:45:10;;;;;;;9.57;2.83;;;7.30;99.20;;;;;;5052768;28;20131;-74
2022/10/12 00:47:38;;;;;;;7.28;2.45;;;7.20;99.40;;;;;;5072232;28;20439;-74
2022/10/12 00:50:22;;;;;;;7.93;2.90;;;7.10;99.40;;;;;;5071161;28;20044;-74
2022/10/12 00:53:01;;;;;;;12.07;2.78;;;7.10;99.50;;;;;;5079439;28;20046;-74
2022/10/12 00:55:29;;;;;;;10.50;3.08;;;7.10;99.40;;;;;;5086899;28;20055;-74
2022/10/12 00:57:54;;;;;;;7.95;2.40;;;7.10;99.40;;;;;;5051908;28;20557;-73
2022/10/12 01:00:20;;;;;;;7.53;2.70;;;7.10;99.50;;;;;;5055034;28;20051;-74
2022/10/12 01:02:46;;;;;;;10.23;2.50;;;7.00;99.40;;;;;;5069262;28;20040;-74
2022/10/12 01:05:12;;;;;;;13.00;2.70;;;7.00;99.50;;;;;;5052332;28;20049;-74
2022/10/12 01:07:38;;;;;;;7.90;2.80;;;7.00;99.80;;;;;;5088897;28;20047;-74
2022/10/12 01:10:04;;;;;;;9.27;3.10;;;7.00;99.30;;;;;;5071338;28;20045;-73
2022/10/12 01:12:30;;;;;;;10.63;2.47;;;7.00;99.30;;;;;;5071405;28;20072;-74
2022/10/12 01:14:57;;;;;;;8.15;2.45;;;6.90;99.40;;;;;;5086485;28;20087;-74
2022/10/12 01:17:34;;;;;;;7.72;2.42;;;6.90;99.50;;;;;;5084072;28;20050;-74
2022/10/12 01:20:05;;;;;;;6.82;2.03;;;6.90;99.70;;;;;;5079445;28;20044;-73
2022/10/12 01:22:32;;;;;;;12.70;3.20;;;6.90;99.70;;;;;;5076214;28;20040;-74
2022/10/12 01:25:16;;;;;;;9.45;2.88;;;6.90;99.90;;;;;;5048329;28;20054;-73
2022/10/12 01:27:50;;;;;;;9.30;2.50;;;6.80;99.90;;;;;;5084610;28;20040;-74
2022/10/12 01:30:45;;;;;;;7.45;2.30;;;6.90;99.90;;;;;;5064414;28;20056;-75
2022/10/12 01:33:34;;;;;;;8.55;2.30;;;6.80;99.90;;;;;;5063819;28;20128;-74
2022/10/12 01:36:05;;;;;;;8.65;2.13;;;6.90;99.90;;;;;;5053708;28;20049;-72
2022/10/12 01:38:44;;;;;;;6.07;2.30;;;6.90;99.90;;;;;;5046450;28;20114;-73
2022/10/12 01:41:36;;;;;;;7.93;1.88;;;6.90;99.90;;;;;;5070508;28;20091;-74
2022/10/12 01:44:02;;;;;;;9.55;2.65;;;6.90;99.90;;;;;;5082414;28;20140;-74
2022/10/12 01:46:27;;;;;;;8.23;2.28;;;6.90;99.80;;;;;;5072219;28;20130;-66
2022/10/12 01:48:55;;;;;;;7.68;2.30;;;6.90;99.90;;;;;;5092960;28;20040;-74
2022/10/12 01:51:30;;;;;;;9.38;2.35;;;6.80;99.90;;;;;;5050031;28;20040;-74
2022/10/12 01:54:20;;;;;;;11.95;2.50;;;6.90;99.90;;;;;;5069020;28;20131;-74
2022/10/12 01:57:11;;;;;;;9.32;2.10;;;6.90;99.90;;;;;;5079391;28;20351;-74
2022/10/12 01:59:48;;;;;;;7.38;1.95;;;6.90;99.90;;;;;;5055277;28;20548;-74
2022/10/12 02:02:49;;;;;;;10.43;1.97;;;6.80;99.80;;;;;;5079963;28;20055;-74
2022/10/12 02:05:43;;;;;;;6.25;2.05;;;6.80;99.90;;;;;;5088356;28;20048;-73
2022/10/12 02:08:31;;;;;;;11.15;3.03;;;6.70;99.90;;;;;;5086224;28;20044;-74
2022/10/12 02:11:13;;;;;;;7.90;2.17;;;6.70;99.90;;;;;;5085601;28;20036;-65
2022/10/12 02:14:01;;;;;;;8.70;2.40;;;6.60;99.90;;;;;;5026643;28;20099;-66
2022/10/12 02:16:38;;;;;;;8.63;2.37;;;6.60;99.90;;;;;;5083480;28;20346;-65
2022/10/12 02:19:05;;;;;;;7.97;2.17;;;6.50;99.80;;;;;;5058870;28;20286;-66
2022/10/12 02:21:31;;;;;;;8.60;2.30;;;6.50;99.80;;;;;;5082720;28;20152;-65
2022/10/12 02:23:59;;;;;;;8.77;2.30;;;6.50;99.80;;;;;;5067719;28;20413;-65
2022/10/12 02:26:25;;;;;;;5.88;2.13;;;6.50;99.80;;;;;;5069025;28;20128;-66
2022/10/12 02:28:50;;;;;;;8.77;2.17;;;6.50;99.70;;;;;;5059035;28;20495;-65
2022/10/12 02:31:29;;;;;;;8.32;1.90;;;6.50;99.60;;;;;;5069828;28;20040;-66
2022/10/12 02:34:12;;;;;;;6.65;2.22;;;6.50;99.70;;;;;;5069902;28;20481;-65
2022/10/12 02:37:02;;;;;;;9.70;2.20;;;6.50;99.60;;;;;;5090363;28;20162;-67
2022/10/12 02:39:31;;;;;;;8.10;2.30;;;6.40;99.60;;;;;;5047717;28;20109;-67
2022/10/12 02:52:05;;;;;;;6.15;2.20;;;6.30;99.70;;;;;;5082702;28;20036;-65
2022/10/12 02:54:31;;;;;;;10.43;2.28;;;6.20;99.90;;;;;;5063491;28;20509;-65
2022/10/12 02:56:57;;;;;;;8.70;2.10;;;6.20;99.70;;;;;;5068856;28;20622;-65
2022/10/12 02:59:23;;;;;;;10.02;1.90;;;6.20;99.90;;;;;;5070794;28;20040;-65
2022/10/12 03:01:49;;;;;;;6.38;1.95;;;6.20;99.90;;;;;;5053575;28;20123;-65
2022/10/12 03:04:14;;;;;;;8.23;1.83;;;6.10;99.80;;;;;;5051638;28;20043;-66
2022/10/12 03:06:41;;;;;;;13.27;2.30;;;6.10;99.80;;;;;;5076594;28;20122;-66
2022/10/12 03:09:07;;;;;;;10.77;2.33;;;6.20;99.90;;;;;;5050852;28;20135;-65
2022/10/12 03:11:33;;;;;;;10.43;2.20;;;6.20;99.90;;;;;;5069522;28;20040;-66
2022/10/12 03:13:59;;;;;;;9.40;2.70;;;6.20;99.90;;;;;;5038542;28;20040;-65
2022/10/12 03:16:25;;;;;;;8.68;2.38;;;6.10;99.90;;;;;;5068276;28;20052;-65
2022/10/12 03:18:51;;;;;;;9.50;2.30;;;6.10;99.90;;;;;;5069843;28;20057;-66
2022/10/12 03:21:16;;;;;;;6.90;2.10;;;6.10;99.90;;;;;;5053194;28;20048;-65
2022/10/12 03:23:42;;;;;;;7.90;2.22;;;6.00;99.90;;;;;;5082311;28;20056;-65
2022/10/12 03:26:08;;;;;;;6.07;2.17;;;6.00;99.90;;;;;;5056895;28;20052;-65
2022/10/12 03:28:34;;;;;;;6.47;1.85;;;6.00;99.90;;;;;;5083243;28;20040;-64
2022/10/12 03:31:00;;;;;;;9.40;2.15;;;6.10;99.90;;;;;;5061597;28;20445;-64
2022/10/12 03:33:26;;;;;;;7.85;2.20;;;6.00;99.90;;;;;;5051480;28;20377;-67
2022/10/12 03:35:52;;;;;;;3.95;1.95;;;6.10;99.80;;;;;;5066514;28;20048;-67
2022/10/12 03:38:18;;;;;;;7.38;1.70;;;6.00;99.80;;;;;;5076551;28;20060;-66
2022/10/12 03:40:44;;;;;;;7.15;1.73;;;6.00;99.90;;;;;;5100853;28;20040;-66
2022/10/12 03:43:09;;;;;;;7.20;1.70;;;6.00;99.80;;;;;;5072646;28;20032;-66
2022/10/12 03:45:35;;;;;;;7.40;2.03;;;6.00;99.80;;;;;;5066712;28;20640;-64
2022/10/12 03:48:02;;;;;;;7.53;1.70;;;5.90;99.80;;;;;;5063008;28;20051;-66
2022/10/12 03:50:28;;;;;;;11.77;2.40;;;5.90;99.90;;;;;;5047916;28;20068;-65
2022/10/12 03:52:53;;;;;;;5.53;1.80;;;5.90;99.90;;;;;;5062232;28;20558;-65
2022/10/12 03:55:19;;;;;;;8.10;2.03;;;5.90;99.90;;;;;;5047374;28;20048;-65
2022/10/12 03:57:45;;;;;;;7.03;2.03;;;5.90;99.90;;;;;;5066849;28;20055;-65
2022/10/12 04:00:12;;;;;;;5.25;2.38;;;5.80;99.90;;;;;;5067452;28;20515;-65
2022/10/12 04:02:39;;;;;;;6.93;2.05;;;5.80;99.90;;;;;;5086318;28;20052;-65
2022/10/12 04:05:05;;;;;;;10.68;2.47;;;5.80;99.90;;;;;;5084332;28;20045;-66
2022/10/12 04:07:31;;;;;;;5.68;1.80;;;5.80;99.90;;;;;;5049868;28;20044;-65
2022/10/12 04:09:56;;;;;;;5.15;2.00;;;5.80;99.90;;;;;;5047124;28;20496;-65
2022/10/12 04:12:22;;;;;;;5.53;1.73;;;5.80;99.90;;;;;;5083589;28;20044;-66
2022/10/12 04:14:48;;;;;;;6.45;1.80;;;5.80;99.90;;;;;;5058846;28;20393;-65
2022/10/12 04:27:20;;;;;;;9.30;2.15;;;5.80;99.90;;;;;;5080202;28;20083;-68
2022/10/12 04:29:46;;;;;;;6.97;1.95;;;5.70;99.90;;;;;;5063883;28;20099;-66
2022/10/12 04:32:11;;;;;;;8.70;2.30;;;5.60;99.90;;;;;;5073845;28;20044;-75
2022/10/12 04:44:57;;;;;;;14.73;6.88;;;5.60;99.90;;;;;;5081083;28;20122;-74
2022/10/12 04:47:23;;;;;;;17.40;7.72;;;5.60;99.90;;;;;;5074364;28;20489;-74
2022/10/12 04:49:49;;;;;;;13.65;5.15;;;5.60;99.90;;;;;;5065880;28;20512;-73
2022/10/12 04:52:14;;;;;;;10.32;3.65;;;5.50;99.90;;;;;;5084053;28;20085;-74
2022/10/12 04:54:40;;;;;;;9.48;3.28;;;5.50;99.90;;;;;;5076091;28;20087;-74
2022/10/12 04:57:06;;;;;;;14.00;3.63;;;5.50;99.90;;;;;;5076585;28;20458;-74
2022/10/12 04:59:32;;;;;;;10.55;2.42;;;5.50;99.90;;;;;;5071939;28;20547;-74
2022/10/12 05:01:58;;;;;;;9.23;2.45;;;5.50;99.90;;;;;;5084895;28;20135;-74
2022/10/12 05:04:23;;;;;;;6.20;2.30;;;5.50;99.90;;;;;;5072686;28;20079;-75
2022/10/12 05:06:49;;;;;;;8.50;2.15;;;5.60;99.90;;;;;;5086999;28;20086;-74
2022/10/12 05:09:15;;;;;;;10.93;2.40;;;5.60;99.90;;;;;;5079366;28;20047;-74
2022/10/12 05:11:41;;;;;;;8.50;2.50;;;5.60;99.90;;;;;;5071257;28;20068;-74
2022/10/12 05:14:08;;;;;;;13.13;2.33;;;5.60;99.90;;;;;;5080340;28;20488;-74
2022/10/12 05:16:33;;;;;;;7.93;2.70;;;5.60;99.90;;;;;;5062595;28;20060;-74
2022/10/12 05:18:59;;;;;;;8.02;2.35;;;5.60;99.90;;;;;;5066258;28;20131;-75
2022/10/12 05:21:25;;;;;;;16.45;3.53;;;5.60;99.90;;;;;;5042900;28;20492;-74
2022/10/12 05:23:51;;;;;;;5.50;2.25;;;5.60;99.90;;;;;;5073822;28;20044;-74
2022/10/12 05:26:17;;;;;;;7.82;2.38;;;5.60;99.90;;;;;;5043648;28;20104;-75
2022/10/12 05:28:43;;;;;;;11.15;2.78;;;5.60;99.90;;;;;;5054546;28;20032;-74
2022/10/12 05:31:09;;;;;;;8.48;2.10;;;5.50;99.90;;;;;;5072983;28;20377;-74
2022/10/12 05:33:35;;;;;;;10.05;2.72;;;5.50;99.90;;;;;;5056489;28;20051;-74
2022/10/12 05:36:00;;;;;;;11.32;3.55;;;5.50;99.90;;;;;;5075744;28;20382;-75
2022/10/12 05:38:26;;;;;;;9.30;2.15;;;5.50;99.90;;;;;;5054996;28;20044;-74
2022/10/12 05:40:52;;;;;;;5.35;2.10;;;5.50;99.90;;;;;;5071832;28;20390;-74
2022/10/12 05:43:18;;;;;;;6.10;1.98;;;5.50;99.90;;;;;;5055279;28;20052;-74
2022/10/12 05:45:43;;;;;;;4.97;2.03;;;5.50;99.90;;;;;;5054167;28;20049;-75
2022/10/12 05:48:11;;;;;;;9.57;2.95;;;5.50;99.90;;;;;;5086745;28;20035;-74
2022/10/12 05:50:37;;;;;;;8.33;2.63;;;5.50;99.90;;;;;;5038164;28;20044;-75
2022/10/12 05:53:03;;;;;;;7.55;2.15;;;5.50;99.90;;;;;;5070638;28;20501;-74
2022/10/12 05:55:29;;;;;;;6.97;2.53;;;5.50;99.90;;;;;;5070169;28;20072;-74
2022/10/12 05:57:54;;;;;;;6.40;2.35;;;5.40;99.90;;;;;;5054617;28;20052;-74
2022/10/12 06:00:21;;;;;;;8.48;2.28;;;5.40;99.90;;;;;;5071275;28;20079;-74
2022/10/12 06:02:47;;;;;;;7.13;2.22;;;5.40;99.90;;;;;;5084242;28;20056;-74
2022/10/12 06:05:12;;;;;;;8.45;2.35;;;5.40;99.90;;;;;;5071235;28;20052;-74
2022/10/12 06:07:39;;;;;;;10.45;2.58;;;5.40;99.90;;;;;;5055419;28;20059;-74
2022/10/12 06:10:06;;;;;;;10.65;2.90;;;5.40;99.90;;;;;;5073592;28;20683;-75
2022/10/12 06:12:32;;;;;;;11.75;2.38;;;5.40;99.90;;;;;;5074386;28;20048;-74
2022/10/12 06:14:57;;;;;;;9.77;2.58;;;5.50;99.90;;;;;;5056202;28;20071;-74
2022/10/12 06:17:23;;;;;;;10.70;2.70;;;5.40;99.90;;;;;;5087193;28;20048;-74
2022/10/12 06:19:49;;;;;;;9.18;2.60;;;5.50;99.90;;;;;;5070825;28;20635;-74
2022/10/12 06:22:14;;;;;;;5.53;1.98;;;5.50;99.90;;;;;;5072799;28;20496;-76
2022/10/12 06:24:40;;;;;;;8.70;2.15;;;5.50;99.90;;;;;;5075826;28;20137;-74
2022/10/12 06:27:06;;;;;;;8.13;2.45;;;5.50;99.90;;;;;;5073478;28;20197;-74
2022/10/12 06:29:32;;;;;;;8.07;2.28;;;5.60;99.90;;;;;;5038373;28;20110;-73
2022/10/12 06:31:59;;;;;;;9.23;1.98;;;5.50;99.90;;;;;;5073484;28;20040;-74
2022/10/12 06:34:25;;;;;;;10.07;2.60;;;5.60;99.90;;;;;;5070181;28;20046;-74
2022/10/12 06:36:52;;;;;;;9.80;2.30;;;5.60;99.90;;;;;;5053543;28;20040;-73
2022/10/12 06:39:18;;;;;;;9.85;2.38;;;5.60;99.90;;;;;;5085110;28;20047;-74
2022/10/12 06:41:45;;;;;;;8.52;2.20;;;5.70;99.90;;;;;;5090469;28;20044;-74
2022/10/12 06:44:11;;;;;;;6.50;2.10;;;5.70;99.90;;;;;;5090093;28;20396;-73
2022/10/12 06:46:37;;;;;;;9.90;2.30;;;5.70;99.90;;;;;;5075695;28;20492;-74
2022/10/12 06:49:03;;;;;;;11.48;2.70;;;5.80;99.90;;;;;;5083516;28;20045;-74
2022/10/12 06:51:28;;;;;;;11.10;2.60;;;5.80;99.90;;;;;;5065074;28;20131;-73
2022/10/12 06:53:56;;;;;;;12.32;2.97;;;5.80;99.90;;;;;;5069764;28;20079;-74
2022/10/12 06:56:22;;;;;;;9.63;3.10;;;5.80;99.90;;;;;;5069992;28;20110;-73
2022/10/12 06:58:55;;;;;;;13.32;3.22;;;5.80;99.90;;;;;;5072150;28;20043;-74
2022/10/12 07:01:21;;;;;;;12.85;2.35;;;5.80;99.90;;;;;;5073212;28;20051;-73
2022/10/12 07:03:46;;;;;;;10.05;2.80;;;5.90;99.90;;;;;;5089086;28;20063;-74
2022/10/12 07:06:12;;;;;;;8.18;2.58;;;6.00;99.90;;;;;;5090453;28;20048;-74
2022/10/12 07:08:39;;;;;;;9.70;2.65;;;6.00;99.90;;;;;;5073465;28;20047;-75
2022/10/12 07:11:06;;;;;;;9.48;2.90;;;6.10;99.90;;;;;;5070876;28;20056;-74
2022/10/12 07:13:32;;;;;;;11.18;3.00;;;6.10;99.90;;;;;;5036333;28;20072;-74
2022/10/12 07:15:58;;;;;;;13.88;3.20;;;6.10;99.90;;;;;;5064833;28;20074;-74
2022/10/12 07:18:24;;;;;;;12.18;3.53;;;6.20;99.90;;;;;;5089772;28;20461;-74
2022/10/12 07:20:50;;;;;;;13.13;3.58;;;6.20;99.90;;;;;;5072610;28;20055;-75
2022/10/12 07:23:16;;;;;;;10.82;3.95;;;6.20;99.90;;;;;;5072081;28;20039;-74
2022/10/12 07:25:51;;;;;;;9.27;3.00;;;6.30;99.90;;;;;;5089444;28;20377;-74
2022/10/12 07:28:18;;;;;;;12.60;3.53;;;6.40;99.90;;;;;;5072016;28;20051;-74
2022/10/12 07:30:43;;;;;;;10.95;3.47;;;6.40;99.90;;;;;;5065749;28;20477;-74
2022/10/12 07:33:09;;;;;;;12.18;4.18;;;6.40;99.90;;;;;;5088207;28;20079;-74
2022/10/12 07:35:35;;;;;;;16.88;4.28;;;6.50;99.90;;;;;;5089166;28;20133;-74
2022/10/12 07:38:01;;;;;;;10.02;3.83;;;6.60;99.90;;;;;;5089352;28;20040;-74
2022/10/12 07:40:30;;;;;;;10.55;3.45;;;6.70;99.90;;;;;;5076022;28;20537;-74
2022/10/12 07:42:56;;;;;;;8.63;3.50;;;6.70;99.90;;;;;;5052152;28;20127;-75
2022/10/12 07:45:24;;;;;;;9.50;3.45;;;6.80;99.90;;;;;;5070175;28;20063;-74
2022/10/12 07:47:50;;;;;;;11.77;3.38;;;6.80;99.90;;;;;;5069189;28;20040;-77
2022/10/12 07:50:15;;;;;;;12.27;3.42;;;6.90;99.90;;;;;;5063737;28;20109;-76
2022/10/12 07:52:41;;;;;;;13.63;3.53;;;7.00;99.90;;;;;;5071850;28;20048;-76
2022/10/12 07:55:07;;;;;;;11.55;4.47;;;7.10;99.90;;;;;;5055934;28;20385;-74
2022/10/12 07:57:33;;;;;;;18.88;6.72;;;7.20;99.90;;;;;;5067198;28;20660;-76
2022/10/12 07:59:59;;;;;;;14.48;4.30;;;7.30;99.90;;;;;;5049208;28;20043;-76
2022/10/12 08:02:24;;;;;;;14.07;3.95;;;7.40;99.90;;;;;;5083302;28;20512;-74
2022/10/12 08:04:52;;;;;;;10.27;3.65;;;7.50;99.90;;;;;;5091680;28;20052;-76
2022/10/12 08:07:19;;;;;;;11.93;4.00;;;7.60;99.90;;;;;;5093203;28;20044;-75
2022/10/12 08:09:46;;;;;;;8.95;3.50;;;7.70;99.90;;;;;;5076631;28;20749;-75
2022/10/12 08:12:12;;;;;;;9.13;3.17;;;7.80;99.90;;;;;;5076123;28;20047;-76
2022/10/12 08:14:37;;;;;;;12.68;3.40;;;7.80;99.90;;;;;;5075932;28;20082;-76
2022/10/12 08:17:05;;;;;;;13.25;4.35;;;8.00;99.90;;;;;;5059289;28;20044;-74
2022/10/12 08:19:30;;;;;;;16.73;4.28;;;8.10;99.90;;;;;;5059638;28;20048;-74
2022/10/12 08:21:56;;;;;;;15.43;3.65;;;8.20;99.90;;;;;;5054624;28;20051;-76
2022/10/12 08:24:22;;;;;;;10.80;3.78;;;8.30;99.90;;;;;;5055044;28;20464;-76
2022/10/12 08:26:48;;;;;;;11.98;3.38;;;8.40;99.90;;;;;;5073200;28;20048;-71
2022/10/12 08:29:13;;;;;;;11.90;3.63;;;8.50;99.90;;;;;;5082489;28;20051;-71
2022/10/12 08:31:39;;;;;;;11.00;3.55;;;8.60;99.90;;;;;;5102706;28;20531;-72
2022/10/12 08:34:05;;;;;;;15.30;3.90;;;8.60;99.90;;;;;;5055771;28;20393;-72
2022/10/12 08:36:31;;;;;;;10.13;3.67;;;8.80;99.90;;;;;;5066000;28;20048;-72
2022/10/12 08:38:57;;;;;;;13.18;3.47;;;8.90;99.90;;;;;;5074725;28;20051;-72
2022/10/12 08:41:54;;;;;;;10.55;3.47;;;9.10;99.90;;;;;;5092095;28;20052;-72
2022/10/12 08:44:46;;;;;;;15.73;2.95;;;9.20;99.90;;;;;;5091433;28;20124;-71
2022/10/12 08:47:24;;;;;;;10.30;2.80;;;9.30;99.90;;;;;;5086999;28;20044;-71
2022/10/12 08:49:50;;;;;;;11.00;3.08;;;9.50;99.90;;;;;;5063720;28;20939;-71
2022/10/12 08:52:29;;;;;;;11.85;2.50;;;9.60;99.90;;;;;;5071624;28;20131;-72
2022/10/12 08:55:19;;;;;;;12.00;3.10;;;9.70;99.90;;;;;;5088595;28;20056;-71
2022/10/12 08:57:45;;;;;;;11.15;2.67;;;9.80;99.90;;;;;;5078164;28;20048;-72
2022/10/12 09:00:14;;;;;;;10.70;2.88;;;10.00;99.90;;;;;;5077161;28;20059;-73
2022/10/12 09:03:18;;;;;;;12.18;2.53;;;10.10;99.90;;;;;;5073802;28;20055;-71
2022/10/12 09:05:53;;;;;;;17.52;3.03;;;10.30;99.90;;;;;;5074494;28;20445;-71
2022/10/12 09:08:43;;;;;;;8.52;2.45;;;10.40;99.90;;;;;;5075134;28;20354;-71
2022/10/12 09:11:43;;;;;;;12.30;2.53;;;10.60;99.90;;;;;;5075092;28;20044;-71
2022/10/12 09:14:22;;;;;;;11.60;2.38;;;10.70;99.90;;;;;;5066937;28;20370;-71
2022/10/12 09:16:51;;;;;;;12.57;2.47;;;10.90;99.90;;;;;;5090913;28;20122;-72
2022/10/12 09:19:20;;;;;;;;;;;11.10;99.90;;;;;;5057548;28;20560;-71
2022/10/12 09:21:47;;;;;;;12.18;2.60;;;11.20;99.90;;;;;;5090975;28;19919;-72
2022/10/12 09:24:26;;;;;;;10.13;2.80;;;11.40;99.90;;;;;;5073179;28;20664;-72
2022/10/12 09:26:53;;;;;;;13.65;2.28;;;11.50;99.90;;;;;;5058580;28;20043;-72
2022/10/12 09:29:26;;;;;;;12.57;1.95;;;11.70;99.70;;;;;;5086680;28;20060;-71
2022/10/12 09:32:26;;;;;;;10.57;1.98;;;11.80;99.40;;;;;;5070975;28;20045;-71
2022/10/12 09:34:52;;;;;;;14.60;2.15;;;12.00;98.60;;;;;;5073917;28;20086;-71
2022/10/12 09:37:22;;;;;;;11.63;2.08;;;12.30;98.40;;;;;;5056814;28;20485;-71
2022/10/12 09:39:47;;;;;;;11.32;2.10;;;12.40;97.70;;;;;;5073000;28;20053;-71
2022/10/12 09:42:13;;;;;;;11.63;2.58;;;12.60;97.80;;;;;;5090791;28;20136;-72
2022/10/12 09:44:45;;;;;;;12.18;2.40;;;12.70;97.00;;;;;;5070796;28;20662;-72
2022/10/12 09:47:20;;;;;;;9.70;2.15;;;12.90;96.30;;;;;;5066871;28;20043;-71
2022/10/12 09:49:47;;;;;;;10.15;1.73;;;13.10;95.30;;;;;;5091521;28;20048;-71
2022/10/12 09:52:14;;;;;;;10.10;1.42;;;13.30;96.50;;;;;;5073210;28;20048;-72
2022/10/12 09:54:45;;;;;;;8.07;1.97;;;13.50;95.40;;;;;;5057505;28;20055;-70
2022/10/12 09:57:22;;;;;;;14.88;2.38;;;13.70;95.40;;;;;;5089379;28;20082;-71
2022/10/12 09:59:48;;;;;;;9.95;2.15;;;13.90;93.00;;;;;;5090741;28;20857;-74
2022/10/12 10:02:20;;;;;;;12.55;2.33;;;13.90;91.80;;;;;;5073241;28;20075;-74
2022/10/12 10:04:47;;;;;;;10.07;2.00;;;13.90;91.00;;;;;;5072778;28;20047;-74
2022/10/12 10:07:32;;;;;;;18.33;1.92;;;14.00;90.40;;;;;;5056625;28;20040;-74
2022/10/12 10:10:21;;;;;;;11.00;1.70;;;14.10;91.30;;;;;;5082777;28;20037;-74
2022/10/12 10:12:57;;;;;;;10.98;1.65;;;14.30;91.30;;;;;;5069769;28;20070;-74
2022/10/12 10:15:30;;;;;;;9.00;1.90;;;14.50;90.60;;;;;;5067662;28;20138;-75
2022/10/12 10:18:20;;;;;;;9.52;2.35;;;14.70;90.10;;;;;;5053767;28;20053;-75
2022/10/12 10:20:51;;;;;;;12.57;2.17;;;14.90;90.20;;;;;;5065547;28;20082;-74
2022/10/12 10:23:50;;;;;;;7.97;1.95;;;15.00;84.50;;;;;;5070677;28;20052;-75
2022/10/12 10:26:18;;;;;;;7.32;1.65;;;15.00;85.00;;;;;;5061651;28;20118;-74
2022/10/12 10:28:45;;;;;;;9.82;2.38;;;15.20;85.90;;;;;;5073228;28;20048;-74
2022/10/12 10:31:20;;;;;;;10.73;2.37;;;15.40;84.50;;;;;;5091056;28;20166;-74
2022/10/12 10:34:18;;;;;;;14.13;2.53;;;15.50;86.60;;;;;;5071088;28;20044;-75
2022/10/12 10:36:52;;;;;;;11.27;2.40;;;15.80;83.60;;;;;;5041648;28;20071;-74
2022/10/12 10:39:26;;;;;;;14.38;2.60;;;15.70;80.60;;;;;;5054097;28;20044;-74
2022/10/12 10:41:54;;;;;;;9.27;1.83;;;16.40;82.10;;;;;;5037234;28;20074;-74
2022/10/12 10:44:24;;;;;;;10.65;2.13;;;16.70;78.60;;;;;;5053707;28;20062;-75
2022/10/12 10:46:51;;;;;;;9.70;2.40;;;18.10;78.70;;;;;;5069274;28;20078;-76
2022/10/12 10:49:34;;;;;;;5.80;2.13;;;18.50;73.10;;;;;;5054002;28;20043;-74
2022/10/12 10:52:00;;;;;;;7.10;1.80;;;19.00;67.70;;;;;;5072642;28;20047;-74
2022/10/12 10:54:35;;;;;;;10.05;2.03;;;19.70;70.30;;;;;;5068195;28;20040;-76
2022/10/12 10:57:18;;;;;;;11.48;2.67;;;19.50;66.20;;;;;;5066337;28;20060;-75
2022/10/12 11:00:18;;;;;;;9.15;1.70;;;20.10;64.60;;;;;;5052387;28;20044;-74
2022/10/12 11:02:48;;;;;;;7.90;1.90;;;20.80;65.10;;;;;;5088787;28;20155;-74
2022/10/12 11:05:24;;;;;;;9.27;2.17;;;21.20;63.90;;;;;;5089858;28;20143;-74
2022/10/12 11:07:54;;;;;;;7.50;1.88;;;21.40;61.80;;;;;;5088281;28;20043;-73
2022/10/12 11:10:29;;;;;;;8.43;1.65;;;21.10;57.30;;;;;;5084483;28;20116;-74
2022/10/12 11:12:59;;;;;;;6.97;1.65;;;20.60;60.40;;;;;;5067975;28;20416;-74
2022/10/12 11:15:40;;;;;;;8.52;1.83;;;20.30;60.70;;;;;;5088189;28;20083;-74
2022/10/12 11:18:13;;;;;;;8.65;2.47;;;20.50;57.50;;;;;;5073220;28;20043;-73
2022/10/12 11:20:50;;;;;;;8.40;2.10;;;21.30;57.60;;;;;;5087826;28;20063;-73
2022/10/12 11:23:37;;;;;;;9.18;1.98;;;21.60;59.00;;;;;;5055807;28;20044;-74
2022/10/12 11:26:14;;;;;;;12.55;2.20;;;20.90;57.90;;;;;;5073625;28;20051;-74
2022/10/12 11:28:40;;;;;;;9.27;1.95;;;20.70;57.30;;;;;;5056037;28;20154;-73
2022/10/12 11:31:10;;;;;;;6.40;1.92;;;21.40;56.40;;;;;;5067333;28;20430;-73
2022/10/12 11:33:38;;;;;;;5.70;2.03;;;21.50;55.80;;;;;;5067701;28;20040;-73
2022/10/12 11:36:10;;;;;;;8.98;1.85;;;21.30;58.20;;;;;;5084639;28;20053;-73
2022/10/12 11:38:44;;;;;;;7.25;2.20;;;20.30;56.00;;;;;;5069812;28;20071;-74
2022/10/12 11:41:15;;;;;;;7.03;1.88;;;20.20;58.90;;;;;;5054314;28;20054;-74
2022/10/12 11:43:59;;;;;;;6.93;1.83;;;20.20;60.90;;;;;;5071091;28;20059;-74
2022/10/12 11:46:33;;;;;;;8.10;2.20;;;20.50;59.40;;;;;;5078650;28;20080;-74
2022/10/12 11:49:25;;;;;;;18.65;4.00;;;21.30;58.20;;;;;;5051761;28;20530;-70
2022/10/12 11:51:51;;;;;;;13.55;3.97;;;21.10;58.70;;;;;;5056874;28;20055;-71
2022/10/12 11:54:29;;;;;;;11.43;2.55;;;20.80;58.80;;;;;;5069440;28;20388;-74
2022/10/12 11:56:55;;;;;;;;;;;21.50;58.70;;;;;;5068498;28;20052;-73
2022/10/12 11:59:24;;;;;;;19.88;5.57;;;21.50;60.00;;;;;;5067611;28;19943;-72
2022/10/12 12:02:05;;;;;;;14.00;5.18;;;20.90;59.90;;;;;;5052391;28;20036;-71
2022/10/12 12:04:32;;;;;;;14.55;5.53;;;20.80;60.00;;;;;;5087410;28;20070;-71
2022/10/12 12:07:02;;;;;;;18.77;4.77;;;21.60;60.80;;;;;;5087996;28;20054;-71
2022/10/12 12:09:35;;;;;;;11.30;2.80;;;21.80;60.30;;;;;;5067898;28;20294;-72
2022/10/12 12:12:15;;;;;;;13.23;4.82;;;22.00;58.10;;;;;;5069173;28;20048;-71
2022/10/12 12:14:52;;;;;;;11.82;3.50;;;22.20;58.80;;;;;;5061684;28;20193;-70
2022/10/12 12:17:23;;;;;;;15.35;4.15;;;22.70;58.40;;;;;;5075484;28;20482;-71
2022/10/12 12:19:49;;;;;;;11.98;3.40;;;22.60;55.50;;;;;;5079641;28;20048;-70
2022/10/12 12:22:18;;;;;;;16.45;5.28;;;23.70;56.70;;;;;;5059372;28;20044;-71
2022/10/12 12:25:04;;;;;;;10.98;3.38;;;23.90;56.10;;;;;;5084419;28;20082;-71
2022/10/12 12:27:32;;;;;;;11.85;3.35;;;23.90;55.80;;;;;;5055350;28;20359;-70
2022/10/12 12:29:59;;;;;;;15.05;4.57;;;23.60;53.00;;;;;;5051765;28;20143;-70
2022/10/12 12:32:25;;;;;;;10.27;2.88;;;23.30;55.50;;;;;;5055519;28;20119;-71
2022/10/12 12:34:57;;;;;;;10.18;3.05;;;23.90;55.80;;;;;;5067376;28;20060;-73
2022/10/12 12:37:25;;;;;;;13.60;3.17;;;24.30;53.30;;;;;;5051402;28;20044;-71
2022/10/12 12:39:53;;;;;;;10.38;2.83;;;23.50;53.40;;;;;;5071777;28;20048;-70
2022/10/12 12:42:23;;;;;;;10.68;2.58;;;22.80;55.70;;;;;;5073789;28;20050;-71
2022/10/12 12:44:49;;;;;;;10.82;3.10;;;22.70;55.60;;;;;;5070220;28;20095;-71
2022/10/12 12:47:18;;;;;;;12.43;2.80;;;22.40;55.10;;;;;;5071757;28;20185;-71
2022/10/12 12:49:55;;;;;;;10.23;2.55;;;22.00;56.40;;;;;;5082191;28;20043;-70
2022/10/12 12:52:28;;;;;;;11.82;2.83;;;21.90;56.60;;;;;;5086353;28;20086;-71
2022/10/12 12:55:00;;;;;;;9.35;2.28;;;21.90;57.60;;;;;;5090733;28;20097;-71
2022/10/12 12:57:42;;;;;;;9.30;2.78;;;21.50;57.70;;;;;;5078794;28;20099;-71
2022/10/12 13:00:20;;;;;;;12.15;2.80;;;22.00;57.20;;;;;;5076522;28;20045;-70
2022/10/12 13:02:49;;;;;;;;;;;21.90;56.70;;;;;;5071078;28;20343;-72
2022/10/12 13:05:59;;;;;;;11.15;2.28;;;21.80;58.00;;;;;;5070927;28;19920;-72
2022/10/12 13:08:50;;;;;;;13.30;2.03;;;21.90;55.90;;;;;;5082465;28;20047;-68
2022/10/12 13:11:19;;;;;;;6.03;1.65;;;22.20;55.60;;;;;;5082791;28;20545;-69
2022/10/12 13:14:12;;;;;;;7.88;2.03;;;22.60;54.40;;;;;;5082041;28;20483;-68
2022/10/12 13:17:00;;;;;;;7.45;1.75;;;23.10;53.80;;;;;;5061403;28;20904;-68
2022/10/12 13:19:26;;;;;;;9.63;1.98;;;23.10;52.40;;;;;;5079160;28;20066;-68
2022/10/12 13:21:53;;;;;;;12.98;2.28;;;22.90;54.20;;;;;;5056481;28;20477;-68
2022/10/12 13:24:24;;;;;;;9.95;1.98;;;22.10;52.30;;;;;;5074116;28;20090;-69
2022/10/12 13:26:51;;;;;;;8.48;1.98;;;21.50;54.70;;;;;;5090659;28;20122;-68
2022/10/12 13:29:36;;;;;;;9.27;1.90;;;21.20;56.10;;;;;;5073567;28;20078;-68
2022/10/12 13:32:03;;;;;;;7.82;1.65;;;21.00;56.80;;;;;;5073928;28;20047;-68
2022/10/12 13:34:41;;;;;;;10.95;2.28;;;20.60;57.60;;;;;;5052337;28;20387;-68
2022/10/12 13:37:13;;;;;;;8.75;2.00;;;20.50;58.30;;;;;;5074205;28;20441;-67
2022/10/12 13:39:42;;;;;;;7.45;2.13;;;20.10;59.20;;;;;;5073727;28;20062;-67